Badgeworth, United Kingdom
Current Conditions -  °F | °C
As of 7:20 PM on Wednesday 17 Dec 2014 (Local Time) from EGBJ Reporting Station
Broken Clouds Broken Clouds  
Wind Chill: 54°   Ceiling: 4200
Heat Index: 54°   Visibility: 5mi
Dew Point: 52°   Wind: 9mph
Humidity: 94%   Direction: 210°SSW
Pressure: 29.77"   Gusts: NA
Location:  51.91°N, 2.11°W
Report Text: EGBJ 171920Z 21008KT 8000 SCT014 BKN042 12/11 Q1008
Loading
Personal Weather Stations






























Interactive Weather Map New forecast layout! Learn more

10-Day Weather Forecast

Advertisements
Track Severe Weather on mobile